ココス (キーリング) 諸島 の空港の天気 - METARとTAF

ココス島国際空港 ( YPCC / CCK ) - ココス諸島 ココス (キーリング) 諸島
飛行場実況気象(Metar)
観測時間07/16 12:43 CCT (07/16 06:13 UTC)
風向・風速東南東 8m/s 瞬間風速13m/s
視程10km以上
天気現象
少しの雲 雲底高度 730m
全天の8割程度の雲 雲底高度 2680m
気温27℃
湿度66%
気圧1011hPa
METARYPCC 160613Z 11015G25KT 9999 FEW024 BKN088 27/20 Q1011
過去の天気等 Google飛行場航空写真 Wunderground天気予報

過去48時間のMETAR

飛行場予報(TAF)
発表時間: 7/16 11:41 CCT (7/16 05:11 UTC)
予報対象時間: 16日12時 CCT ~ 17日12時 CCT
風向・風速南東 9m/s
視程10km以上
天気現象弱いしゅう雨
全天の4割程度の雲 雲底高度 610m
TAF YPCC 160511Z 1606/1706 13018KT 9999 -SHRA SCT020 INTER 1606/1706 09025G35KT 2000 SHRA BKN012